Ipatinga, Brazil
Current Conditions -  °F | °C
As of 5:50 PM on Saturday 20 Dec 2014 (Local Time) from SBIP Reporting Station
Scattered Clouds Scattered Clouds  
Wind Chill: 86°   Ceiling: Unl
Heat Index: 87°   Visibility: 6mi
Dew Point: 64°   Wind: 13mph
Humidity: 48%   Direction: 40°NE
Pressure: 29.8"   Gusts: NA
Location:  19.48°S, 42.52°W
Report Text: SBIP 201950Z 04011KT 9999 SCT040 30/18 Q1009
Loading
Personal Weather Stations






























Interactive Weather Map New forecast layout! Learn more

10-Day Weather Forecast

Advertisements
Track Severe Weather on mobile